South of the Border, South Carolina
Current Conditions -  °F | °C
As of 3:52 PM on Thursday 23 Oct 2014 (Local Time) from KMEB Reporting Station
Clear Clear  
Wind Chill: 69°   Ceiling: Unl
Heat Index: 69°   Visibility: 10mi
Dew Point: 42°   Wind: 9mph
Humidity: 38%   Direction: 300°WNW
Pressure: 29.96"   Gusts: NA
Location:  34.5115°N, 79.4035°W
Report Text: KMEB 231952Z AUTO 30008KT 10SM CLR 21/06 A2996 RMK AO2 SLP143 T02060056
Loading
Personal Weather Stations






























Interactive Weather Map
Tropical Storm Tracking
New forecast layout! Learn more

10-Day Weather Forecast

Advertisements
Track Severe Weather on mobile